Time;durP1;ratioP1;P1;durP2;ratioP2;P2;SDS_P1;SDS_P2;PMS_P1;PMS_P2;Temp;Humidity;BMP_temperature;BMP_pressure;BME280_temperature;BME280_humidity;BME280_pressure;Samples;Min_cycle;Max_cycle;Signal;HPM_P1;HPM_P2
2023/06/29 00:00:23;;;;;;;36.38;25.83;;;18.20;99.90;;;;;;4927293;29;20043;-86
2023/06/29 00:02:50;;;;;;;39.08;27.23;;;18.20;99.90;;;;;;4927351;29;20090;-85
2023/06/29 00:05:18;;;;;;;36.63;24.90;;;18.20;99.90;;;;;;4912713;29;20051;-85
2023/06/29 00:07:44;;;;;;;44.45;28.15;;;18.20;99.90;;;;;;4907914;29;20039;-85
2023/06/29 00:10:10;;;;;;;33.50;23.95;;;18.20;99.90;;;;;;4911129;29;20043;-85
2023/06/29 00:12:37;;;;;;;31.27;21.33;;;18.20;99.90;;;;;;4904683;29;20080;-85
2023/06/29 00:15:03;;;;;;;36.33;26.50;;;18.20;99.90;;;;;;4922673;29;20040;-86
2023/06/29 00:17:29;;;;;;;36.88;26.30;;;18.20;99.90;;;;;;4924340;29;20051;-86
2023/06/29 00:19:55;;;;;;;40.55;28.23;;;18.20;99.90;;;;;;4911080;29;20634;-86
2023/06/29 00:22:21;;;;;;;40.10;28.33;;;18.20;99.90;;;;;;4925149;29;20118;-86
2023/06/29 00:24:54;;;;;;;37.40;27.65;;;18.20;99.90;;;;;;4928208;29;20502;-86
2023/06/29 00:27:21;;;;;;;40.05;28.80;;;18.20;99.90;;;;;;4924893;29;20462;-86
2023/06/29 00:29:46;;;;;;;40.40;27.65;;;18.20;99.90;;;;;;4929168;29;20044;-86
2023/06/29 00:32:13;;;;;;;42.28;26.77;;;18.20;99.90;;;;;;4924812;29;20510;-86
2023/06/29 00:34:39;;;;;;;41.75;29.85;;;18.20;99.90;;;;;;4926629;29;20402;-86
2023/06/29 00:37:05;;;;;;;44.22;30.40;;;18.20;99.90;;;;;;4927744;29;20095;-86
2023/06/29 00:39:32;;;;;;;41.83;30.33;;;18.20;99.90;;;;;;4930403;29;20502;-86
2023/06/29 00:41:58;;;;;;;41.35;27.83;;;18.10;99.90;;;;;;4917671;29;20051;-86
2023/06/29 00:44:24;;;;;;;42.35;29.35;;;18.10;99.90;;;;;;4929433;29;20542;-86
2023/06/29 00:46:51;;;;;;;43.65;29.95;;;18.10;99.90;;;;;;4928333;29;20036;-86
2023/06/29 00:49:19;;;;;;;41.40;28.42;;;18.10;99.90;;;;;;4904644;29;20067;-85
2023/06/29 00:51:57;;;;;;;36.72;28.20;;;18.10;99.90;;;;;;4907454;29;20134;-86
2023/06/29 00:54:25;;;;;;;40.35;28.50;;;18.10;99.90;;;;;;4895491;29;20518;-86
2023/06/29 00:56:51;;;;;;;42.75;29.05;;;18.10;99.90;;;;;;4907058;29;20509;-86
2023/06/29 00:59:17;;;;;;;46.70;29.80;;;18.20;99.90;;;;;;4910556;29;20147;-85
2023/06/29 01:01:45;;;;;;;40.97;28.90;;;18.10;99.90;;;;;;4924721;29;20127;-85
2023/06/29 01:04:25;;;;;;;45.20;31.00;;;18.10;99.90;;;;;;4901597;29;20099;-86
2023/06/29 01:07:30;;;;;;;46.63;29.75;;;18.10;99.90;;;;;;4924276;29;20078;-86
2023/06/29 01:09:57;;;;;;;41.03;28.30;;;18.10;99.90;;;;;;4907151;29;20048;-86
2023/06/29 01:12:23;;;;;;;43.30;29.88;;;18.10;99.90;;;;;;4912479;29;20491;-86
2023/06/29 01:14:50;;;;;;;44.90;29.67;;;18.10;99.90;;;;;;4927484;29;20047;-85
2023/06/29 01:17:20;;;;;;;42.45;28.85;;;18.10;99.90;;;;;;4926350;29;20074;-86
2023/06/29 01:19:49;;;;;;;38.22;29.02;;;18.10;99.90;;;;;;4913517;29;20032;-86
2023/06/29 01:22:23;;;;;;;41.08;29.33;;;18.10;99.90;;;;;;4909258;29;20539;-86
2023/06/29 01:24:49;;;;;;;;;;;18.10;99.90;;;;;;4923703;29;20118;-86
2023/06/29 01:27:16;;;;;;;43.90;29.80;;;18.00;99.90;;;;;;4895122;29;19926;-86
2023/06/29 01:29:41;;;;;;;42.22;28.95;;;18.10;99.90;;;;;;4921288;29;20044;-86
2023/06/29 01:32:08;;;;;;;45.88;30.30;;;18.00;99.90;;;;;;4925696;29;20044;-86
2023/06/29 01:34:36;;;;;;;40.95;29.02;;;18.00;99.90;;;;;;4926898;29;20040;-86
2023/06/29 01:37:19;;;;;;;44.88;30.05;;;18.00;99.90;;;;;;4926303;29;20031;-86
2023/06/29 01:39:55;;;;;;;42.13;30.65;;;18.00;99.90;;;;;;4909058;29;20040;-86
2023/06/29 01:42:21;;;;;;;35.53;25.52;;;18.00;99.90;;;;;;4911950;29;20043;-86
2023/06/29 01:44:50;;;;;;;41.25;29.17;;;18.10;99.90;;;;;;4909995;29;20054;-86
2023/06/29 01:47:18;;;;;;;42.83;30.42;;;18.00;99.90;;;;;;4927189;29;20039;-86
2023/06/29 01:49:44;;;;;;;39.13;27.30;;;18.00;99.90;;;;;;4907422;29;20506;-86
2023/06/29 01:52:10;;;;;;;44.97;31.48;;;18.00;99.90;;;;;;4911415;29;20437;-86
2023/06/29 01:54:36;;;;;;;46.65;31.25;;;18.00;99.90;;;;;;4923971;29;20483;-86
2023/06/29 01:57:05;;;;;;;43.17;30.00;;;18.00;99.90;;;;;;4911917;29;20162;-86
2023/06/29 01:59:31;;;;;;;44.33;30.05;;;18.00;99.90;;;;;;4911152;29;20091;-86
2023/06/29 02:01:57;;;;;;;48.08;32.70;;;18.00;99.90;;;;;;4927971;29;20375;-85
2023/06/29 02:04:22;;;;;;;43.75;31.33;;;18.00;99.90;;;;;;4904276;29;20128;-86
2023/06/29 02:06:48;;;;;;;46.88;31.67;;;18.00;99.90;;;;;;4907152;29;20052;-86
2023/06/29 02:09:14;;;;;;;38.30;27.10;;;18.00;99.90;;;;;;4911385;29;20044;-86
2023/06/29 02:11:40;;;;;;;46.53;32.22;;;18.00;99.90;;;;;;4902442;29;20044;-86
2023/06/29 02:14:05;;;;;;;46.20;31.48;;;18.00;99.90;;;;;;4912581;29;20063;-86
2023/06/29 02:16:31;;;;;;;39.53;29.23;;;18.00;99.90;;;;;;4913205;29;20044;-86
2023/06/29 02:18:57;;;;;;;40.80;29.67;;;18.00;99.90;;;;;;4924732;29;20402;-86
2023/06/29 02:21:22;;;;;;;44.33;31.55;;;18.00;99.90;;;;;;4900079;29;20047;-86
2023/06/29 02:23:48;;;;;;;45.88;31.42;;;18.00;99.90;;;;;;4922731;29;20048;-86
2023/06/29 02:26:14;;;;;;;46.10;32.58;;;18.00;99.90;;;;;;4908099;29;20455;-86
2023/06/29 02:28:39;;;;;;;48.00;32.42;;;17.90;99.90;;;;;;4930046;29;20060;-86
2023/06/29 02:31:05;;;;;;;41.42;28.27;;;18.00;99.90;;;;;;4923885;29;20063;-85
2023/06/29 02:33:31;;;;;;;39.33;28.40;;;18.00;99.90;;;;;;4916808;29;20749;-86
2023/06/29 02:35:56;;;;;;;47.42;32.47;;;17.90;99.90;;;;;;4906393;29;20127;-86
2023/06/29 02:38:22;;;;;;;43.90;32.05;;;17.90;99.90;;;;;;4912907;29;20627;-86
2023/06/29 02:40:48;;;;;;;46.72;32.50;;;17.90;99.90;;;;;;4906903;29;20126;-86
2023/06/29 02:43:16;;;;;;;46.08;32.65;;;18.00;99.90;;;;;;4907412;29;20111;-86
2023/06/29 02:45:42;;;;;;;43.85;30.83;;;17.90;99.90;;;;;;4932182;29;20036;-85
2023/06/29 02:48:08;;;;;;;49.05;31.65;;;18.00;99.90;;;;;;4906844;29;20058;-86
2023/06/29 02:50:33;;;;;;;47.95;32.30;;;17.90;99.90;;;;;;4930532;29;20128;-86
2023/06/29 02:52:59;;;;;;;50.92;32.10;;;17.90;99.90;;;;;;4908868;29;20075;-86
2023/06/29 02:55:26;;;;;;;45.08;32.13;;;17.90;99.90;;;;;;4927841;29;20050;-86
2023/06/29 02:57:51;;;;;;;47.70;30.83;;;17.90;99.90;;;;;;4912776;29;20547;-85
2023/06/29 03:00:17;;;;;;;43.53;31.20;;;17.90;99.90;;;;;;4908129;29;20119;-86
2023/06/29 03:02:43;;;;;;;44.63;31.20;;;17.90;99.90;;;;;;4908078;29;20070;-86
2023/06/29 03:05:09;;;;;;;42.42;28.98;;;17.90;99.90;;;;;;4928460;29;20039;-86
2023/06/29 03:07:35;;;;;;;46.72;31.63;;;17.90;99.90;;;;;;4915665;29;20036;-86
2023/06/29 03:10:01;;;;;;;44.30;32.30;;;17.90;99.90;;;;;;4931335;29;20092;-86
2023/06/29 03:12:26;;;;;;;42.40;30.75;;;17.90;99.90;;;;;;4928123;29;20042;-86
2023/06/29 03:14:52;;;;;;;37.63;27.20;;;17.90;99.90;;;;;;4913840;29;20114;-85
2023/06/29 03:17:18;;;;;;;42.97;30.95;;;17.90;99.90;;;;;;4931623;29;20118;-86
2023/06/29 03:19:45;;;;;;;42.08;29.88;;;17.90;99.90;;;;;;4928646;29;20036;-86
2023/06/29 03:22:11;;;;;;;41.75;28.92;;;17.80;99.90;;;;;;4907170;29;20599;-85
2023/06/29 03:24:36;;;;;;;42.72;29.98;;;17.90;99.90;;;;;;4928038;29;20032;-86
2023/06/29 03:27:04;;;;;;;41.42;28.85;;;17.90;99.90;;;;;;4905909;29;20051;-86
2023/06/29 03:29:30;;;;;;;45.58;32.17;;;17.90;99.90;;;;;;4928688;29;20063;-86
2023/06/29 03:31:55;;;;;;;37.60;26.42;;;17.90;99.90;;;;;;4907591;29;20198;-86
2023/06/29 03:34:21;;;;;;;42.03;29.13;;;17.90;99.90;;;;;;4928370;29;20035;-86
2023/06/29 03:36:46;;;;;;;42.53;30.70;;;17.90;99.90;;;;;;4907100;29;20396;-86
2023/06/29 03:39:12;;;;;;;40.80;29.33;;;17.90;99.90;;;;;;4911257;29;20095;-86
2023/06/29 03:41:38;;;;;;;43.03;29.50;;;17.90;99.90;;;;;;4928905;29;20114;-86
2023/06/29 03:44:03;;;;;;;46.67;29.38;;;17.90;99.90;;;;;;4899100;29;20040;-85
2023/06/29 03:46:29;;;;;;;49.70;29.20;;;17.90;99.90;;;;;;4900346;29;20457;-85
2023/06/29 03:48:55;;;;;;;40.97;29.33;;;17.90;99.90;;;;;;4930003;29;20051;-86
2023/06/29 03:51:21;;;;;;;40.63;27.42;;;17.90;99.90;;;;;;4925174;29;20083;-86
2023/06/29 03:53:46;;;;;;;36.20;27.00;;;17.90;99.90;;;;;;4908916;29;20460;-86
2023/06/29 03:56:12;;;;;;;44.83;31.50;;;17.90;99.90;;;;;;4916080;29;20099;-86
2023/06/29 03:58:38;;;;;;;45.83;29.33;;;17.90;99.90;;;;;;4910312;29;20363;-86
2023/06/29 04:01:03;;;;;;;43.47;29.38;;;17.90;99.90;;;;;;4930360;29;20486;-86
2023/06/29 04:03:29;;;;;;;43.00;30.13;;;17.90;99.90;;;;;;4913747;29;20047;-85
2023/06/29 04:05:55;;;;;;;41.42;28.65;;;18.00;99.90;;;;;;4916199;29;20277;-86
2023/06/29 04:08:20;;;;;;;43.75;29.38;;;18.00;99.90;;;;;;4911698;29;20087;-86
2023/06/29 04:10:46;;;;;;;37.42;28.05;;;18.00;99.90;;;;;;4902020;29;20036;-86
2023/06/29 04:13:12;;;;;;;39.85;28.63;;;18.00;99.90;;;;;;4931407;29;20044;-86
2023/06/29 04:15:37;;;;;;;39.85;29.27;;;18.00;99.90;;;;;;4915548;29;20068;-85
2023/06/29 04:18:03;;;;;;;40.78;29.23;;;18.10;99.90;;;;;;4914631;29;20043;-86
2023/06/29 04:20:29;;;;;;;40.10;27.95;;;18.10;99.90;;;;;;4918542;29;20047;-86
2023/06/29 04:22:55;;;;;;;38.28;27.92;;;18.10;99.90;;;;;;4899462;29;20048;-86
2023/06/29 04:25:21;;;;;;;39.40;27.95;;;18.10;99.90;;;;;;4930187;29;20039;-86
2023/06/29 04:27:47;;;;;;;38.65;28.27;;;18.10;99.90;;;;;;4915325;29;20086;-86
2023/06/29 04:30:17;;;;;;;37.15;27.15;;;18.20;99.90;;;;;;4914595;29;20043;-86
2023/06/29 04:32:43;;;;;;;42.75;28.40;;;18.20;99.90;;;;;;4910518;29;20107;-86
2023/06/29 04:35:09;;;;;;;39.33;28.45;;;18.20;99.90;;;;;;4905501;29;20123;-86
2023/06/29 04:37:40;;;;;;;42.63;28.98;;;18.20;99.90;;;;;;4924686;29;20099;-86
2023/06/29 04:40:09;;;;;;;39.42;28.08;;;18.20;99.90;;;;;;4924265;29;20400;-86
2023/06/29 04:42:43;;;;;;;42.47;27.73;;;18.20;99.90;;;;;;4913454;29;20103;-85
2023/06/29 04:45:17;;;;;;;37.47;25.20;;;18.30;99.90;;;;;;4911273;29;20118;-85
2023/06/29 04:47:44;;;;;;;37.47;25.95;;;18.30;99.90;;;;;;4913290;29;20043;-85
2023/06/29 04:50:11;;;;;;;39.75;27.63;;;18.30;99.90;;;;;;4911837;29;20042;-86
2023/06/29 04:52:37;;;;;;;37.55;26.08;;;18.40;99.90;;;;;;4927043;29;20172;-85
2023/06/29 04:55:04;;;;;;;39.25;27.80;;;18.40;99.90;;;;;;4923000;29;20051;-86
2023/06/29 04:57:30;;;;;;;34.30;24.83;;;18.40;99.90;;;;;;4898837;29;20036;-86
2023/06/29 04:59:56;;;;;;;39.35;27.20;;;18.50;99.90;;;;;;4927293;29;20454;-86
2023/06/29 05:02:22;;;;;;;35.65;25.30;;;18.50;99.90;;;;;;4925263;29;20558;-86
2023/06/29 05:04:49;;;;;;;39.35;26.88;;;18.60;99.90;;;;;;4885232;29;20047;-87
2023/06/29 05:07:15;;;;;;;39.00;26.20;;;18.60;99.90;;;;;;4906847;29;20055;-86
2023/06/29 05:09:41;;;;;;;42.70;28.10;;;18.70;99.90;;;;;;4912146;29;20126;-86
2023/06/29 05:12:08;;;;;;;39.97;24.98;;;18.70;99.90;;;;;;4903245;29;20032;-86
2023/06/29 05:14:34;;;;;;;33.85;22.52;;;18.80;99.90;;;;;;4916290;29;20098;-87
2023/06/29 05:16:59;;;;;;;35.63;25.15;;;18.80;99.90;;;;;;4921826;29;20039;-86
2023/06/29 05:19:25;;;;;;;33.80;24.05;;;18.80;99.90;;;;;;4911268;29;20078;-87
2023/06/29 05:21:51;;;;;;;34.88;23.08;;;18.90;99.90;;;;;;4907025;29;20044;-86
2023/06/29 05:24:17;;;;;;;33.58;25.25;;;18.90;99.90;;;;;;4930688;29;20078;-86
2023/06/29 05:26:42;;;;;;;36.88;24.25;;;19.00;99.90;;;;;;4927254;29;20048;-86
2023/06/29 05:29:08;;;;;;;38.78;24.90;;;19.00;99.90;;;;;;4918031;29;20047;-86
2023/06/29 05:31:34;;;;;;;33.33;23.65;;;19.00;99.90;;;;;;4913189;29;20406;-86
2023/06/29 05:33:59;;;;;;;31.23;23.08;;;19.00;99.90;;;;;;4926963;29;20050;-86
2023/06/29 05:36:26;;;;;;;34.72;24.17;;;19.10;99.90;;;;;;4914186;29;20078;-87
2023/06/29 05:38:52;;;;;;;36.88;22.92;;;19.10;99.90;;;;;;4906857;29;20039;-87
2023/06/29 05:41:18;;;;;;;33.53;24.17;;;19.10;99.90;;;;;;4926196;29;20594;-86
2023/06/29 05:43:47;;;;;;;31.00;23.95;;;19.10;99.90;;;;;;4907983;29;20088;-86
2023/06/29 05:46:12;;;;;;;34.80;23.65;;;19.20;99.90;;;;;;4907140;29;20138;-86
2023/06/29 05:48:38;;;;;;;34.15;23.88;;;19.20;99.90;;;;;;4912975;29;20491;-86
2023/06/29 05:51:04;;;;;;;32.90;23.27;;;19.20;99.90;;;;;;4910440;29;20032;-86
2023/06/29 05:53:31;;;;;;;37.65;23.25;;;19.30;99.90;;;;;;4923164;29;20039;-83
2023/06/29 05:55:57;;;;;;;31.67;22.02;;;19.40;99.90;;;;;;4913029;29;20048;-87
2023/06/29 05:58:23;;;;;;;34.83;23.60;;;19.40;99.90;;;;;;4917962;29;20453;-87
2023/06/29 06:00:51;;;;;;;30.55;23.38;;;19.50;99.90;;;;;;4927271;29;20048;-88
2023/06/29 06:03:16;;;;;;;33.72;22.65;;;19.60;99.90;;;;;;4904972;29;20368;-88
2023/06/29 06:05:42;;;;;;;34.97;24.13;;;19.60;99.90;;;;;;4915789;29;20618;-88
2023/06/29 06:08:08;;;;;;;29.33;21.85;;;19.70;99.90;;;;;;4911364;29;20040;-88
2023/06/29 06:10:34;;;;;;;35.40;22.77;;;19.70;99.90;;;;;;4918826;29;20418;-88
2023/06/29 06:12:59;;;;;;;33.50;23.70;;;19.70;99.90;;;;;;4915271;29;20040;-88
2023/06/29 06:15:25;;;;;;;33.30;21.92;;;19.80;99.90;;;;;;4914955;29;20051;-89
2023/06/29 06:17:51;;;;;;;33.65;23.30;;;19.80;99.90;;;;;;4935487;29;20039;-90
2023/06/29 06:20:17;;;;;;;36.35;21.92;;;19.80;99.90;;;;;;4917710;29;20051;-89
2023/06/29 06:22:43;;;;;;;33.10;22.63;;;19.90;99.90;;;;;;4937585;29;20399;-91
2023/06/29 06:25:09;;;;;;;36.38;23.33;;;20.00;99.90;;;;;;4918875;29;20032;-92
2023/06/29 06:27:35;;;;;;;32.85;22.42;;;20.00;99.90;;;;;;4915738;29;20192;-92
2023/06/29 06:30:06;;;;;;;36.38;22.67;;;20.20;99.90;;;;;;4919809;29;20209;-92
2023/06/29 06:32:32;;;;;;;31.10;22.05;;;19.90;99.90;;;;;;4916867;29;20076;-89
2023/06/29 06:35:09;;;;;;;;;;;20.00;99.90;;;;;;4918894;29;20036;-89
2023/06/29 06:37:38;;;;;;;30.45;21.95;;;20.00;99.90;;;;;;4932174;29;19931;-88
2023/06/29 06:40:08;;;;;;;31.00;22.38;;;20.00;99.90;;;;;;4937042;29;20044;-91
2023/06/29 06:42:34;;;;;;;33.70;22.02;;;20.10;99.90;;;;;;4918690;29;20051;-91
2023/06/29 06:45:03;;;;;;;33.47;22.50;;;20.10;99.90;;;;;;4907723;29;20043;-88
2023/06/29 06:47:33;;;;;;;33.38;22.67;;;20.10;99.90;;;;;;4933534;29;20040;-89
2023/06/29 06:50:04;;;;;;;30.05;21.35;;;20.10;99.90;;;;;;4922205;29;20048;-88
2023/06/29 06:52:30;;;;;;;38.00;22.10;;;20.20;99.90;;;;;;4921023;29;20115;-88
2023/06/29 06:54:56;;;;;;;31.02;21.35;;;20.20;99.90;;;;;;4932600;29;20106;-95
2023/06/29 06:57:22;;;;;;;31.17;21.27;;;20.10;99.90;;;;;;4928360;28;20279;-85
2023/06/29 06:59:48;;;;;;;32.83;21.38;;;20.20;99.90;;;;;;4915344;29;20376;-87
2023/06/29 07:02:14;;;;;;;31.42;22.05;;;20.20;99.90;;;;;;4915116;29;20245;-85
2023/06/29 07:04:40;;;;;;;31.55;22.85;;;20.20;99.90;;;;;;4932282;29;20044;-86
2023/06/29 07:07:07;;;;;;;31.92;22.70;;;20.10;99.90;;;;;;4931482;29;20390;-86
2023/06/29 07:09:33;;;;;;;32.50;21.40;;;20.20;99.90;;;;;;4914793;29;20502;-87
2023/06/29 07:11:59;;;;;;;33.20;21.70;;;20.20;99.90;;;;;;4928526;29;20149;-86
2023/06/29 07:14:25;;;;;;;36.33;22.13;;;20.20;99.90;;;;;;4909749;29;20052;-86
2023/06/29 07:16:51;;;;;;;33.50;22.13;;;20.20;99.90;;;;;;4904501;29;20708;-85
2023/06/29 07:19:17;;;;;;;35.95;22.02;;;20.20;99.90;;;;;;4919281;29;20044;-86
2023/06/29 07:21:43;;;;;;;38.65;21.40;;;20.20;99.90;;;;;;4913949;29;20055;-90
2023/06/29 07:24:09;;;;;;;33.90;21.63;;;20.20;99.90;;;;;;4916520;29;20050;-88
2023/06/29 07:26:36;;;;;;;32.85;22.13;;;20.20;99.90;;;;;;4932801;29;20035;-92
2023/06/29 07:29:06;;;;;;;29.00;20.08;;;20.30;99.90;;;;;;4918045;29;20048;-87
2023/06/29 07:31:32;;;;;;;29.45;20.23;;;20.30;99.90;;;;;;4931222;29;20036;-90
2023/06/29 07:34:01;;;;;;;28.27;20.05;;;20.30;99.90;;;;;;4929248;29;20050;-93
2023/06/29 07:36:29;;;;;;;29.38;21.02;;;20.30;99.90;;;;;;4930002;29;20032;-92
2023/06/29 07:38:55;;;;;;;30.38;20.75;;;20.20;99.90;;;;;;4906550;29;20039;-92
2023/06/29 07:41:22;;;;;;;29.58;20.27;;;20.20;99.90;;;;;;4920924;29;20056;-91
2023/06/29 07:43:55;;;;;;;35.38;21.45;;;20.20;99.90;;;;;;4916975;29;20051;-91
2023/06/29 07:46:22;;;;;;;32.17;20.83;;;20.20;99.90;;;;;;4901716;29;20051;-90
2023/06/29 07:48:51;;;;;;;31.75;19.95;;;20.20;99.90;;;;;;4918441;29;20447;-89
2023/06/29 07:51:17;;;;;;;30.40;20.23;;;20.20;99.90;;;;;;4912140;29;20044;-90
2023/06/29 07:53:44;;;;;;;32.78;20.83;;;20.20;99.90;;;;;;4916426;29;20054;-89
2023/06/29 07:56:10;;;;;;;34.95;21.05;;;20.20;99.90;;;;;;4909832;29;20691;-90
2023/06/29 07:58:36;;;;;;;29.17;20.30;;;20.20;99.90;;;;;;4913190;29;20047;-90
2023/06/29 08:01:02;;;;;;;30.08;21.35;;;20.30;99.90;;;;;;4901008;29;20170;-90
2023/06/29 08:03:28;;;;;;;29.80;20.88;;;20.30;99.90;;;;;;4898700;29;20099;-90
2023/06/29 08:06:03;;;;;;;34.42;20.90;;;20.40;99.90;;;;;;4928885;29;20118;-90
2023/06/29 08:08:29;;;;;;;35.92;20.83;;;20.40;99.90;;;;;;4909829;29;20100;-90
2023/06/29 08:10:55;;;;;;;31.13;21.00;;;20.40;99.90;;;;;;4912577;29;20423;-91
2023/06/29 08:13:21;;;;;;;35.33;21.42;;;20.40;99.90;;;;;;4913672;29;20052;-90
2023/06/29 08:15:47;;;;;;;30.27;20.95;;;20.40;99.90;;;;;;4903153;29;20503;-89
2023/06/29 08:18:12;;;;;;;35.22;21.42;;;20.50;99.90;;;;;;4910973;29;20043;-90
2023/06/29 08:20:38;;;;;;;32.17;21.58;;;20.50;99.90;;;;;;4907700;29;20055;-90
2023/06/29 08:23:05;;;;;;;34.67;21.15;;;20.50;99.90;;;;;;4911124;29;20115;-90
2023/06/29 08:25:32;;;;;;;30.50;21.17;;;20.60;99.90;;;;;;4918122;29;20119;-91
2023/06/29 08:28:01;;;;;;;32.63;21.63;;;20.70;99.90;;;;;;4922794;29;20067;-88
2023/06/29 08:30:27;;;;;;;32.67;22.20;;;20.70;99.90;;;;;;4911494;29;20091;-92
2023/06/29 08:32:53;;;;;;;34.80;21.80;;;20.70;99.90;;;;;;4929069;29;20431;-93
2023/06/29 08:35:19;;;;;;;32.97;21.20;;;20.80;99.90;;;;;;4920050;29;20395;-94
2023/06/29 08:37:47;;;;;;;33.17;21.50;;;20.80;99.90;;;;;;4917688;29;20523;-94
2023/06/29 08:40:18;;;;;;;31.25;22.17;;;20.90;99.90;;;;;;4901166;29;20103;-94
2023/06/29 08:42:46;;;;;;;30.63;21.17;;;20.90;99.90;;;;;;4909822;29;20036;-94
2023/06/29 08:45:12;;;;;;;30.17;21.48;;;21.00;99.90;;;;;;4927751;29;20063;-94
2023/06/29 08:47:38;;;;;;;30.20;20.40;;;21.10;99.90;;;;;;4922173;29;20044;-94
2023/06/29 08:50:08;;;;;;;32.80;22.17;;;21.20;99.90;;;;;;4913189;29;20759;-96
2023/06/29 08:52:35;;;;;;;32.42;21.80;;;21.30;99.90;;;;;;4918673;29;20108;-96
2023/06/29 08:55:02;;;;;;;32.45;22.63;;;21.30;99.90;;;;;;4916800;29;20052;-96
2023/06/29 08:57:32;;;;;;;33.33;23.02;;;21.30;99.90;;;;;;4925101;29;20030;-96
2023/06/29 08:59:59;;;;;;;38.20;24.80;;;21.40;99.90;;;;;;4925967;29;20023;-96
2023/06/29 09:02:25;;;;;;;32.20;22.65;;;21.30;99.90;;;;;;4929882;29;20072;-96
2023/06/29 09:04:51;;;;;;;35.40;23.33;;;21.40;99.90;;;;;;4915505;29;20047;-96
2023/06/29 09:07:16;;;;;;;32.28;24.00;;;21.50;99.90;;;;;;4918697;29;20083;-96
2023/06/29 09:09:43;;;;;;;35.28;25.10;;;21.50;99.90;;;;;;4915508;29;20067;-95
2023/06/29 09:12:12;;;;;;;36.90;26.92;;;21.50;99.90;;;;;;4916615;29;20118;-96
2023/06/29 09:14:44;;;;;;;41.25;27.02;;;21.50;99.90;;;;;;4923730;29;20032;-96
2023/06/29 09:17:14;;;;;;;40.65;29.15;;;21.50;99.90;;;;;;4920388;29;20036;-96
2023/06/29 09:28:00;;;;;;;42.38;27.35;;;21.50;99.90;;;;;;794688;22;20327;-91
2023/06/29 09:30:26;;;;;;;37.60;26.33;;;21.60;99.90;;;;;;4951795;29;20043;-96
2023/06/29 09:32:54;;;;;;;34.80;25.75;;;21.70;99.90;;;;;;4925366;29;20074;-96
2023/06/29 09:35:25;;;;;;;38.45;25.98;;;21.70;99.90;;;;;;4939685;29;20040;-96
2023/06/29 09:37:51;;;;;;;39.00;28.08;;;21.70;99.90;;;;;;4951089;29;20055;-96
2023/06/29 09:40:17;;;;;;;42.03;27.52;;;22.00;99.90;;;;;;4966266;23;20059;-96
2023/06/29 09:42:46;;;;;;;37.00;26.70;;;21.70;99.90;;;;;;4958716;28;20046;-94
2023/06/29 09:45:12;;;;;;;36.70;26.60;;;21.70;99.90;;;;;;4952561;28;20047;-94
2023/06/29 09:47:42;;;;;;;37.92;25.38;;;21.60;99.90;;;;;;4938036;29;20122;-94
2023/06/29 09:50:34;;;;;;;33.97;25.27;;;21.50;99.90;;;;;;4941958;29;20046;-96
2023/06/29 09:53:27;;;;;;;36.10;24.70;;;21.50;99.90;;;;;;4952070;28;20047;-96
2023/06/29 09:55:56;;;;;;;37.08;24.45;;;21.50;99.90;;;;;;4952756;28;20043;-96
2023/06/29 09:58:21;;;;;;;35.97;25.00;;;21.40;99.90;;;;;;4957627;28;20050;-92
2023/06/29 10:00:48;;;;;;;34.65;25.45;;;21.50;99.90;;;;;;4944781;28;20122;-94
2023/06/29 10:03:15;;;;;;;40.13;24.42;;;21.60;99.90;;;;;;4957210;28;20506;-94
2023/06/29 10:05:40;;;;;;;34.97;24.63;;;21.70;99.90;;;;;;4939391;29;20708;-95
2023/06/29 10:08:08;;;;;;;36.67;26.85;;;21.70;99.90;;;;;;4948538;28;20048;-94
2023/06/29 10:10:35;;;;;;;34.17;24.88;;;21.70;99.90;;;;;;4948806;28;20043;-95
2023/06/29 10:13:04;;;;;;;37.92;25.02;;;21.60;99.90;;;;;;4935067;28;20051;-95
2023/06/29 10:15:34;;;;;;;34.38;25.15;;;21.60;99.90;;;;;;4951374;28;20038;-92
2023/06/29 10:18:21;;;;;;;38.55;25.73;;;21.60;99.90;;;;;;4951083;28;20057;-94
2023/06/29 10:20:47;;;;;;;36.50;25.08;;;21.50;99.90;;;;;;4956929;28;20133;-96
2023/06/29 10:23:16;;;;;;;35.08;25.25;;;21.50;99.90;;;;;;4926429;28;20063;-92
2023/06/29 10:25:48;;;;;;;37.00;25.88;;;21.40;99.90;;;;;;4946344;29;20098;-94
2023/06/29 10:28:18;;;;;;;40.50;27.42;;;21.40;99.90;;;;;;4951149;28;20057;-95
2023/06/29 10:30:48;;;;;;;39.33;26.83;;;21.30;99.90;;;;;;4953761;28;20066;-92
2023/06/29 10:33:21;;;;;;;36.30;27.13;;;21.30;99.90;;;;;;4944860;28;20151;-93
2023/06/29 10:35:57;;;;;;;36.57;27.63;;;21.20;99.90;;;;;;4929409;28;20113;-96
2023/06/29 10:38:34;;;;;;;35.88;26.75;;;21.20;99.90;;;;;;4940166;28;20141;-94
2023/06/29 10:41:04;;;;;;;37.20;26.85;;;21.20;99.90;;;;;;4968270;28;20106;-94
2023/06/29 10:43:58;;;;;;;35.97;24.83;;;21.20;99.90;;;;;;4960851;28;20039;-95
2023/06/29 10:46:46;;;;;;;32.92;23.27;;;21.10;99.90;;;;;;4948192;28;20044;-88
2023/06/29 10:49:26;;;;;;;31.17;21.27;;;21.10;99.90;;;;;;4956721;28;20046;-88
2023/06/29 10:52:22;;;;;;;33.78;22.30;;;21.10;99.90;;;;;;4943955;28;20050;-87
2023/06/29 10:55:13;;;;;;;31.48;22.73;;;21.10;99.90;;;;;;4963877;28;20062;-87
2023/06/29 10:57:38;;;;;;;29.65;21.67;;;21.10;99.90;;;;;;4953999;28;20643;-87
2023/06/29 11:00:05;;;;;;;30.88;20.60;;;21.20;99.90;;;;;;4950098;28;20062;-88
2023/06/29 11:02:31;;;;;;;32.22;22.08;;;21.20;99.90;;;;;;4930229;28;20477;-87
2023/06/29 11:04:57;;;;;;;32.15;20.90;;;21.20;99.90;;;;;;4941552;28;20031;-92
2023/06/29 11:07:25;;;;;;;31.90;22.05;;;21.40;99.90;;;;;;4952767;28;20050;-95
2023/06/29 11:10:03;;;;;;;31.13;22.48;;;21.50;99.90;;;;;;4945383;28;20533;-89
2023/06/29 11:12:28;;;;;;;31.80;21.85;;;21.60;99.90;;;;;;4952269;28;20032;-90
2023/06/29 11:14:55;;;;;;;32.38;23.45;;;21.90;99.90;;;;;;4927821;28;20454;-89
2023/06/29 11:17:22;;;;;;;32.22;23.00;;;22.10;99.90;;;;;;4954893;28;20075;-90
2023/06/29 11:19:51;;;;;;;34.08;24.73;;;22.30;99.90;;;;;;4944844;28;20041;-91
2023/06/29 11:22:20;;;;;;;31.85;22.85;;;22.50;99.90;;;;;;4970480;28;20109;-95
2023/06/29 11:24:45;;;;;;;32.55;23.63;;;22.50;99.90;;;;;;4958118;29;20042;-96
2023/06/29 11:27:14;;;;;;;32.97;23.38;;;22.60;99.90;;;;;;4957793;28;20118;-96
2023/06/29 11:29:40;;;;;;;29.67;23.05;;;22.70;99.90;;;;;;4938090;28;20035;-96
2023/06/29 11:32:12;;;;;;;29.73;22.85;;;22.70;99.90;;;;;;4955326;28;20031;-95
2023/06/29 11:34:38;;;;;;;32.58;23.83;;;22.80;99.90;;;;;;4960896;28;20031;-96
2023/06/29 11:37:04;;;;;;;31.45;22.13;;;22.90;99.90;;;;;;4958896;28;20054;-96
2023/06/29 11:39:30;;;;;;;31.85;23.02;;;23.00;99.90;;;;;;4950919;28;20520;-95
2023/06/29 11:41:56;;;;;;;29.02;21.95;;;23.00;99.90;;;;;;4947022;28;20059;-95
2023/06/29 11:44:22;;;;;;;31.27;21.20;;;23.00;99.90;;;;;;4958268;28;20134;-94
2023/06/29 11:46:48;;;;;;;29.30;20.98;;;23.00;99.90;;;;;;4958430;28;20047;-94
2023/06/29 11:49:17;;;;;;;28.98;21.67;;;23.00;99.90;;;;;;4963266;28;20054;-93
2023/06/29 11:51:43;;;;;;;28.38;20.40;;;22.90;99.90;;;;;;4946702;28;20038;-94
2023/06/29 11:54:09;;;;;;;28.58;21.05;;;22.90;99.90;;;;;;4955373;28;20482;-90
2023/06/29 11:56:36;;;;;;;30.65;22.42;;;22.90;99.90;;;;;;4947493;28;20609;-92
2023/06/29 11:59:10;;;;;;;30.23;22.25;;;22.90;99.90;;;;;;4958648;28;20051;-92
2023/06/29 12:01:37;;;;;;;31.40;23.58;;;22.90;99.90;;;;;;4959312;28;20058;-87
2023/06/29 12:04:09;;;;;;;31.23;22.85;;;22.90;99.90;;;;;;4954499;28;20039;-88
2023/06/29 12:06:49;;;;;;;31.27;22.58;;;23.00;99.90;;;;;;4941506;28;20069;-89
2023/06/29 12:09:15;;;;;;;36.05;25.20;;;23.00;99.90;;;;;;4956812;28;20035;-89
2023/06/29 12:11:42;;;;;;;34.97;24.70;;;23.00;99.90;;;;;;4965290;28;20111;-96
2023/06/29 12:14:12;;;;;;;38.70;25.50;;;23.00;99.90;;;;;;4965058;28;20151;-96
2023/06/29 12:16:41;;;;;;;34.35;25.98;;;23.00;99.90;;;;;;5065894;23;20047;-90
2023/06/29 12:19:11;;;;;;;36.13;27.15;;;23.00;99.90;;;;;;4958943;28;20053;-88
2023/06/29 12:21:37;;;;;;;34.70;26.33;;;23.10;99.90;;;;;;4970279;28;20042;-87
2023/06/29 12:24:04;;;;;;;36.83;26.25;;;23.20;99.90;;;;;;4950569;28;20075;-88
2023/06/29 12:26:30;;;;;;;34.92;26.48;;;23.30;99.90;;;;;;4983583;28;20062;-88
2023/06/29 12:28:57;;;;;;;34.88;26.02;;;23.50;99.90;;;;;;4984209;28;20045;-88
2023/06/29 12:31:29;;;;;;;39.97;28.58;;;23.70;99.90;;;;;;4955133;28;20042;-88
2023/06/29 12:33:55;;;;;;;34.33;25.95;;;24.00;99.90;;;;;;4965001;28;20141;-88
2023/06/29 12:36:22;;;;;;;34.30;26.60;;;24.20;99.90;;;;;;4972458;28;20078;-88
2023/06/29 12:38:48;;;;;;;34.00;26.48;;;24.40;99.90;;;;;;4961702;28;20042;-89